createdAt,value
2023-07-17T00:00:49.716Z,2.88
2023-07-17T00:05:52.820Z,3.60
2023-07-17T00:10:58.209Z,3.65
2023-07-17T00:16:00.938Z,3.08
2023-07-17T00:21:03.809Z,3.70
2023-07-17T00:26:06.460Z,3.25
2023-07-17T00:31:09.034Z,3.15
2023-07-17T00:36:11.565Z,3.88
2023-07-17T00:41:14.038Z,3.70
2023-07-17T00:46:19.687Z,3.90
2023-07-17T00:51:22.261Z,3.53
2023-07-17T00:56:26.719Z,3.92
2023-07-17T01:01:29.540Z,3.78
2023-07-17T01:06:32.409Z,4.53
2023-07-17T01:11:35.717Z,3.80
2023-07-17T01:16:38.422Z,4.00
2023-07-17T01:21:52.403Z,3.72
2023-07-17T01:26:55.499Z,3.92
2023-07-17T01:31:58.475Z,4.25
2023-07-17T01:37:01.206Z,4.00
2023-07-17T01:42:04.362Z,4.85
2023-07-17T01:47:07.194Z,4.32
2023-07-17T01:52:11.547Z,3.88
2023-07-17T02:02:16.828Z,3.72
2023-07-17T02:07:19.407Z,3.90
2023-07-17T02:12:21.941Z,3.67
2023-07-17T02:17:24.554Z,4.18
2023-07-17T02:22:29.112Z,3.67
2023-07-17T02:27:33.332Z,3.55
2023-07-17T02:32:35.944Z,3.40
2023-07-17T02:37:38.624Z,3.47
2023-07-17T02:42:41.164Z,4.03
2023-07-17T02:47:43.732Z,4.18
2023-07-17T02:52:46.654Z,4.32
2023-07-17T02:57:49.604Z,3.35
2023-07-17T03:02:52.617Z,4.45
2023-07-17T03:07:56.919Z,3.97
2023-07-17T03:12:59.455Z,4.17
2023-07-17T03:18:04.244Z,3.58
2023-07-17T03:28:10.079Z,3.80
2023-07-17T03:33:12.726Z,4.38
2023-07-17T03:38:15.512Z,4.15
2023-07-17T03:43:18.202Z,4.32
2023-07-17T03:48:22.118Z,3.88
2023-07-17T03:53:25.464Z,4.00
2023-07-17T03:58:29.642Z,5.03
2023-07-17T04:03:33.036Z,4.68
2023-07-17T04:08:36.296Z,3.80
2023-07-17T04:13:40.061Z,4.80
2023-07-17T04:18:43.959Z,4.63
2023-07-17T04:23:50.281Z,4.13
2023-07-17T04:28:55.000Z,4.85
2023-07-17T04:33:58.206Z,4.10
2023-07-17T04:39:05.723Z,5.13
2023-07-17T04:44:09.467Z,4.97
2023-07-17T04:49:12.147Z,4.78
2023-07-17T04:54:15.044Z,5.07
2023-07-17T04:59:18.057Z,5.03
2023-07-17T05:04:20.828Z,6.00
2023-07-17T05:09:23.946Z,5.75
2023-07-17T05:14:27.680Z,4.47
2023-07-17T05:19:33.069Z,4.90
2023-07-17T05:24:36.554Z,5.45
2023-07-17T05:29:39.258Z,5.32
2023-07-17T05:34:42.007Z,5.40
2023-07-17T05:39:45.550Z,5.68
2023-07-17T05:44:49.585Z,5.65
2023-07-17T05:49:52.290Z,6.80
2023-07-17T05:54:56.308Z,6.93
2023-07-17T05:59:59.526Z,6.23
2023-07-17T06:05:02.153Z,6.72
2023-07-17T06:10:05.467Z,6.90
2023-07-17T06:15:08.650Z,8.55
2023-07-17T06:20:11.476Z,7.03
2023-07-17T06:25:14.504Z,7.30
2023-07-17T06:30:17.141Z,6.78
2023-07-17T06:35:19.943Z,7.90
2023-07-17T06:40:22.662Z,9.18
2023-07-17T06:45:25.282Z,8.02
2023-07-17T06:50:28.054Z,8.70
2023-07-17T06:55:30.977Z,8.77
2023-07-17T07:00:33.541Z,7.57
2023-07-17T07:05:36.079Z,9.30
2023-07-17T07:10:38.787Z,8.32
2023-07-17T07:15:41.675Z,8.82
2023-07-17T07:20:45.734Z,9.23
2023-07-17T07:25:48.562Z,9.43
2023-07-17T07:30:58.908Z,7.50
2023-07-17T07:36:01.885Z,8.70
2023-07-17T07:41:04.545Z,8.02
2023-07-17T07:46:07.224Z,8.00
2023-07-17T07:51:09.821Z,8.30
2023-07-17T07:56:12.517Z,8.32
2023-07-17T08:01:15.075Z,6.95
2023-07-17T08:06:17.769Z,6.97
2023-07-17T08:11:23.330Z,6.38
2023-07-17T08:16:25.937Z,6.78
2023-07-17T08:21:28.537Z,7.40
2023-07-17T08:26:31.245Z,6.40
2023-07-17T08:31:35.347Z,6.97
2023-07-17T08:36:38.033Z,6.38
2023-07-17T08:41:42.748Z,6.93
2023-07-17T08:46:47.953Z,6.30
2023-07-17T08:51:51.022Z,5.72
2023-07-17T08:56:53.829Z,6.10
2023-07-17T09:01:56.931Z,5.20
2023-07-17T09:06:59.505Z,5.43
2023-07-17T09:12:09.711Z,5.40
2023-07-17T09:17:12.295Z,5.35
2023-07-17T09:22:16.363Z,4.93
2023-07-17T09:27:18.941Z,5.28
2023-07-17T09:32:23.307Z,4.53
2023-07-17T09:37:31.861Z,4.80
2023-07-17T09:42:35.292Z,5.07
2023-07-17T09:47:38.596Z,4.72
2023-07-17T09:52:43.270Z,4.40
2023-07-17T09:57:47.830Z,3.80
2023-07-17T10:03:02.571Z,4.40
2023-07-17T10:08:07.590Z,4.55
2023-07-17T10:13:11.038Z,4.47
2023-07-17T10:18:14.191Z,4.47
2023-07-17T10:23:25.381Z,4.60
2023-07-17T10:28:32.810Z,4.72
2023-07-17T10:33:39.245Z,5.35
2023-07-17T10:38:43.476Z,4.07
2023-07-17T10:44:17.358Z,3.85
2023-07-17T10:49:21.550Z,3.97
2023-07-17T10:54:25.362Z,4.45
2023-07-17T10:59:27.935Z,4.18
2023-07-17T11:04:30.661Z,4.97
2023-07-17T11:09:33.205Z,4.40
2023-07-17T11:14:36.610Z,4.75
2023-07-17T11:24:41.579Z,3.75
2023-07-17T11:29:47.310Z,4.00
2023-07-17T11:34:55.519Z,4.10
2023-07-17T11:39:58.049Z,4.30
2023-07-17T11:45:01.179Z,3.00
2023-07-17T11:50:04.158Z,2.50
2023-07-17T11:55:07.228Z,3.00
2023-07-17T12:00:11.326Z,2.78
2023-07-17T12:05:17.157Z,3.00
2023-07-17T12:10:20.051Z,3.50
2023-07-17T12:15:23.786Z,3.47
2023-07-17T12:20:27.011Z,3.40
2023-07-17T12:25:30.828Z,4.30
2023-07-17T12:30:33.361Z,3.70
2023-07-17T12:35:37.188Z,3.80
2023-07-17T12:40:39.808Z,3.95
2023-07-17T12:45:42.609Z,3.78
2023-07-17T12:50:45.171Z,3.67
2023-07-17T12:55:48.893Z,4.68
2023-07-17T13:00:56.306Z,4.30
2023-07-17T13:05:58.864Z,3.72
2023-07-17T13:11:01.486Z,4.00
2023-07-17T13:16:04.209Z,3.72
2023-07-17T13:21:06.854Z,3.50
2023-07-17T13:26:09.517Z,3.67
2023-07-17T13:31:12.366Z,3.67
2023-07-17T13:36:15.012Z,4.13
2023-07-17T13:41:43.558Z,4.85
2023-07-17T13:46:48.775Z,4.65
2023-07-17T13:51:51.415Z,5.18
2023-07-17T14:01:59.466Z,5.45
2023-07-17T14:07:02.036Z,5.65
2023-07-17T14:12:04.980Z,6.03
2023-07-17T14:17:07.589Z,5.95
2023-07-17T14:22:10.279Z,6.03
2023-07-17T14:27:12.847Z,6.85
2023-07-17T14:32:15.365Z,5.70
2023-07-17T14:37:17.904Z,6.95
2023-07-17T14:42:20.437Z,6.65
2023-07-17T14:47:23.193Z,6.80
2023-07-17T14:52:26.536Z,6.20
2023-07-17T14:57:29.110Z,7.57
2023-07-17T15:02:31.645Z,5.57
2023-07-17T15:07:34.364Z,5.53
2023-07-17T15:12:36.849Z,4.50
2023-07-17T15:17:39.481Z,4.72
2023-07-17T15:22:44.281Z,5.93
2023-07-17T15:27:47.014Z,5.93
2023-07-17T15:32:49.515Z,4.97
2023-07-17T15:37:52.134Z,5.57
2023-07-17T15:42:54.612Z,5.40
2023-07-17T15:47:57.564Z,5.15
2023-07-17T15:53:00.154Z,5.80
2023-07-17T15:58:03.396Z,5.25
2023-07-17T16:03:06.059Z,4.50
2023-07-17T16:08:08.794Z,4.28
2023-07-17T16:13:11.349Z,4.88
2023-07-17T16:18:14.457Z,4.82
2023-07-17T16:23:17.261Z,5.05
2023-07-17T16:28:19.967Z,4.50
2023-07-17T16:33:22.603Z,4.78
2023-07-17T16:38:25.422Z,4.30
2023-07-17T16:43:28.026Z,4.00
2023-07-17T16:48:30.665Z,4.32
2023-07-17T16:53:33.535Z,4.03
2023-07-17T16:58:37.326Z,4.05
2023-07-17T17:03:40.170Z,4.10
2023-07-17T17:08:43.137Z,3.55
2023-07-17T17:13:45.890Z,3.67
2023-07-17T17:18:48.421Z,4.07
2023-07-17T17:23:51.015Z,3.33
2023-07-17T17:28:53.706Z,3.67
2023-07-17T17:33:56.194Z,3.90
2023-07-17T17:38:59.918Z,3.10
2023-07-17T17:44:02.530Z,3.13
2023-07-17T17:49:05.177Z,3.22
2023-07-17T17:54:07.957Z,2.53
2023-07-17T17:59:10.676Z,3.10
2023-07-17T18:04:13.349Z,2.75
2023-07-17T18:09:15.987Z,2.70
2023-07-17T18:14:18.639Z,2.70
2023-07-17T18:19:36.550Z,2.67
2023-07-17T18:24:39.251Z,2.58
2023-07-17T18:29:42.066Z,2.35
2023-07-17T18:34:44.713Z,2.58
2023-07-17T18:39:47.515Z,2.33
2023-07-17T18:44:50.175Z,2.58
2023-07-17T18:49:52.921Z,2.85
2023-07-17T18:54:55.766Z,2.25
2023-07-17T18:59:58.569Z,2.42
2023-07-17T19:05:01.196Z,2.28
2023-07-17T19:10:04.264Z,2.33
2023-07-17T19:15:09.422Z,2.63
2023-07-17T19:20:12.192Z,3.10
2023-07-17T19:25:14.817Z,2.60
2023-07-17T19:30:17.611Z,2.65
2023-07-17T19:35:21.874Z,3.13
2023-07-17T19:45:28.009Z,2.87
2023-07-17T19:50:30.890Z,3.05
2023-07-17T19:55:33.434Z,2.83
2023-07-17T20:00:37.150Z,2.90
2023-07-17T20:05:39.803Z,3.30
2023-07-17T20:10:42.520Z,2.83
2023-07-17T20:15:45.281Z,2.85
2023-07-17T20:20:48.053Z,3.20
2023-07-17T20:25:50.629Z,2.92
2023-07-17T20:30:53.305Z,3.00
2023-07-17T20:35:56.955Z,2.70
2023-07-17T20:40:59.686Z,2.77
2023-07-17T20:46:02.766Z,3.15
2023-07-17T20:51:06.890Z,3.08
2023-07-17T20:56:10.121Z,3.20
2023-07-17T21:01:27.115Z,3.13
2023-07-17T21:06:29.913Z,3.22
2023-07-17T21:11:32.489Z,4.28
2023-07-17T21:16:35.180Z,3.75
2023-07-17T21:21:38.116Z,3.35
2023-07-17T21:26:40.654Z,3.75
2023-07-17T21:31:43.268Z,3.70
2023-07-17T21:36:45.870Z,4.18
2023-07-17T21:41:48.523Z,3.75
2023-07-17T21:46:51.116Z,4.15
2023-07-17T21:51:53.725Z,4.00
2023-07-17T21:56:56.223Z,3.80
2023-07-17T22:01:58.746Z,4.20
2023-07-17T22:07:01.436Z,4.70
2023-07-17T22:12:06.001Z,3.72
2023-07-17T22:17:08.582Z,3.70
2023-07-17T22:22:11.138Z,3.75
2023-07-17T22:27:13.608Z,4.05
2023-07-17T22:32:17.360Z,4.20
2023-07-17T22:37:21.969Z,3.63
2023-07-17T22:42:24.592Z,4.10
2023-07-17T22:47:28.203Z,3.63
2023-07-17T22:52:30.867Z,3.43
2023-07-17T22:57:33.659Z,3.20
2023-07-17T23:02:36.232Z,3.45
2023-07-17T23:07:38.825Z,3.58
2023-07-17T23:12:41.912Z,3.50
2023-07-17T23:17:48.507Z,3.65
2023-07-17T23:22:51.302Z,3.40
2023-07-17T23:27:53.821Z,4.28
2023-07-17T23:32:56.409Z,3.63
2023-07-17T23:38:00.780Z,3.83
2023-07-17T23:43:03.981Z,4.25
2023-07-17T23:48:07.128Z,3.85
2023-07-17T23:53:09.789Z,4.25
2023-07-17T23:58:13.069Z,3.47
